sensor_id;sensor_type;location;lat;lon;timestamp;noise_LAeq;noise_LA_min;noise_LA_max;noise_LA01;noise_LA95
67310;Laerm;65444;51.438;5.982;2023-03-19T00:00:12;31.11;27.69;46.97;;
67310;Laerm;65444;51.438;5.982;2023-03-19T00:00:23;30.40;27.85;37.84;;
67310;Laerm;65444;51.438;5.982;2023-03-19T00:00:33;28.96;27.35;35.14;;
67310;Laerm;65444;51.438;5.982;2023-03-19T00:00:53;29.04;27.35;34.34;;
67310;Laerm;65444;51.438;5.982;2023-03-19T00:01:06;29.06;27.50;35.08;;
67310;Laerm;65444;51.438;5.982;2023-03-19T00:01:17;29.39;27.86;37.22;;
67310;Laerm;65444;51.438;5.982;2023-03-19T00:01:28;29.58;27.93;34.92;;
67310;Laerm;65444;51.438;5.982;2023-03-19T00:04:31;34.48;28.14;47.19;;
67310;Laerm;65444;51.438;5.982;2023-03-19T00:04:44;29.79;27.87;35.33;;
67310;Laerm;65444;51.438;5.982;2023-03-19T00:05:08;30.65;27.95;41.54;;
67310;Laerm;65444;51.438;5.982;2023-03-19T00:05:40;32.89;27.60;48.38;;
67310;Laerm;65444;51.438;5.982;2023-03-19T00:05:51;30.28;28.23;35.38;;
67310;Laerm;65444;51.438;5.982;2023-03-19T00:06:02;29.24;27.65;35.13;;
67310;Laerm;65444;51.438;5.982;2023-03-19T00:06:13;34.62;27.89;47.07;;
67310;Laerm;65444;51.438;5.982;2023-03-19T00:06:23;33.41;28.26;46.96;;
67310;Laerm;65444;51.438;5.982;2023-03-19T00:06:34;29.70;28.04;35.92;;
67310;Laerm;65444;51.438;5.982;2023-03-19T00:06:45;29.28;27.76;35.03;;
67310;Laerm;65444;51.438;5.982;2023-03-19T00:06:56;30.72;28.37;36.05;;
67310;Laerm;65444;51.438;5.982;2023-03-19T00:07:06;30.08;27.82;35.55;;
67310;Laerm;65444;51.438;5.982;2023-03-19T00:07:17;33.13;27.92;46.83;;
67310;Laerm;65444;51.438;5.982;2023-03-19T00:07:28;32.59;27.95;45.85;;
67310;Laerm;65444;51.438;5.982;2023-03-19T00:07:38;37.22;28.28;48.35;;
67310;Laerm;65444;51.438;5.982;2023-03-19T00:07:52;31.44;28.00;43.48;;
67310;Laerm;65444;51.438;5.982;2023-03-19T00:08:02;32.14;28.01;43.88;;
67310;Laerm;65444;51.438;5.982;2023-03-19T00:08:12;29.45;27.69;34.80;;
67310;Laerm;65444;51.438;5.982;2023-03-19T00:08:23;32.69;28.39;42.27;;
67310;Laerm;65444;51.438;5.982;2023-03-19T00:09:06;34.03;28.01;46.40;;
67310;Laerm;65444;51.438;5.982;2023-03-19T00:09:18;30.33;27.78;38.49;;
67310;Laerm;65444;51.438;5.982;2023-03-19T00:09:28;34.01;28.49;46.00;;
67310;Laerm;65444;51.438;5.982;2023-03-19T00:10:31;38.23;30.03;49.94;;
67310;Laerm;65444;51.438;5.982;2023-03-19T00:10:43;37.57;30.16;50.60;;
67310;Laerm;65444;51.438;5.982;2023-03-19T00:10:54;32.38;28.79;38.12;;
67310;Laerm;65444;51.438;5.982;2023-03-19T00:11:07;31.12;28.47;40.27;;
67310;Laerm;65444;51.438;5.982;2023-03-19T00:11:18;30.80;28.15;35.73;;
67310;Laerm;65444;51.438;5.982;2023-03-19T00:11:29;29.70;27.92;34.60;;
67310;Laerm;65444;51.438;5.982;2023-03-19T00:11:40;31.53;27.92;44.27;;
67310;Laerm;65444;51.438;5.982;2023-03-19T00:12:57;31.23;28.15;47.12;;
67310;Laerm;65444;51.438;5.982;2023-03-19T00:13:08;32.11;29.34;36.81;;
67310;Laerm;65444;51.438;5.982;2023-03-19T00:13:19;32.74;29.31;42.00;;
67310;Laerm;65444;51.438;5.982;2023-03-19T00:13:30;32.59;28.88;42.18;;
67310;Laerm;65444;51.438;5.982;2023-03-19T00:13:41;31.15;29.09;36.02;;
67310;Laerm;65444;51.438;5.982;2023-03-19T00:13:51;30.12;28.07;34.80;;
67310;Laerm;65444;51.438;5.982;2023-03-19T00:22:40;35.63;27.91;54.42;;
67310;Laerm;65444;51.438;5.982;2023-03-19T00:22:51;32.17;27.99;43.25;;
67310;Laerm;65444;51.438;5.982;2023-03-19T00:23:02;30.61;28.19;36.48;;
67310;Laerm;65444;51.438;5.982;2023-03-19T00:23:13;29.02;27.73;34.49;;
67310;Laerm;65444;51.438;5.982;2023-03-19T00:23:23;29.31;27.58;35.26;;
67310;Laerm;65444;51.438;5.982;2023-03-19T00:23:34;29.36;27.77;35.75;;
67310;Laerm;65444;51.438;5.982;2023-03-19T00:23:45;30.08;27.71;39.05;;
67310;Laerm;65444;51.438;5.982;2023-03-19T00:23:56;28.88;27.56;33.14;;
67310;Laerm;65444;51.438;5.982;2023-03-19T00:24:10;33.16;27.84;46.41;;
67310;Laerm;65444;51.438;5.982;2023-03-19T00:24:21;29.36;27.84;35.42;;
67310;Laerm;65444;51.438;5.982;2023-03-19T00:24:32;28.91;27.37;38.00;;
67310;Laerm;65444;51.438;5.982;2023-03-19T00:24:44;28.96;27.69;33.65;;
67310;Laerm;65444;51.438;5.982;2023-03-19T00:24:54;28.80;27.51;34.38;;
67310;Laerm;65444;51.438;5.982;2023-03-19T00:25:06;29.82;28.06;36.79;;
67310;Laerm;65444;51.438;5.982;2023-03-19T00:26:15;29.80;27.84;38.58;;
67310;Laerm;65444;51.438;5.982;2023-03-19T00:26:26;30.30;28.11;35.33;;
67310;Laerm;65444;51.438;5.982;2023-03-19T00:26:37;32.45;28.97;41.82;;
67310;Laerm;65444;51.438;5.982;2023-03-19T00:26:47;33.67;30.85;36.94;;
67310;Laerm;65444;51.438;5.982;2023-03-19T00:26:58;32.19;30.11;37.36;;
67310;Laerm;65444;51.438;5.982;2023-03-19T00:27:09;32.98;29.82;39.13;;
67310;Laerm;65444;51.438;5.982;2023-03-19T00:27:19;32.54;29.99;36.46;;
67310;Laerm;65444;51.438;5.982;2023-03-19T00:27:30;32.70;29.78;36.60;;
67310;Laerm;65444;51.438;5.982;2023-03-19T00:27:41;31.46;29.22;35.66;;
67310;Laerm;65444;51.438;5.982;2023-03-19T00:30:05;37.52;28.60;48.99;;
67310;Laerm;65444;51.438;5.982;2023-03-19T00:30:16;37.31;30.62;46.79;;
67310;Laerm;65444;51.438;5.982;2023-03-19T00:30:27;35.00;30.12;41.82;;
67310;Laerm;65444;51.438;5.982;2023-03-19T00:30:41;36.27;29.68;44.90;;
67310;Laerm;65444;51.438;5.982;2023-03-19T00:31:10;34.23;28.28;45.61;;
67310;Laerm;65444;51.438;5.982;2023-03-19T00:31:21;31.50;28.07;38.39;;
67310;Laerm;65444;51.438;5.982;2023-03-19T00:31:32;30.76;28.44;35.72;;
67310;Laerm;65444;51.438;5.982;2023-03-19T00:32:01;38.51;28.77;46.29;;
67310;Laerm;65444;51.438;5.982;2023-03-19T00:32:12;36.00;27.82;44.37;;
67310;Laerm;65444;51.438;5.982;2023-03-19T00:32:24;32.62;28.70;46.12;;
67310;Laerm;65444;51.438;5.982;2023-03-19T00:32:34;30.00;28.27;37.12;;
67310;Laerm;65444;51.438;5.982;2023-03-19T00:32:58;29.81;28.38;33.45;;
67310;Laerm;65444;51.438;5.982;2023-03-19T00:33:08;29.81;27.90;34.28;;
67310;Laerm;65444;51.438;5.982;2023-03-19T00:33:19;32.44;29.42;36.23;;
67310;Laerm;65444;51.438;5.982;2023-03-19T00:33:30;34.69;29.22;40.12;;
67310;Laerm;65444;51.438;5.982;2023-03-19T00:33:42;30.48;27.84;35.61;;
67310;Laerm;65444;51.438;5.982;2023-03-19T00:33:53;38.42;31.50;45.17;;
67310;Laerm;65444;51.438;5.982;2023-03-19T00:34:03;34.58;28.70;40.22;;
67310;Laerm;65444;51.438;5.982;2023-03-19T00:34:16;30.19;28.31;33.64;;
67310;Laerm;65444;51.438;5.982;2023-03-19T00:34:30;31.41;28.35;43.90;;
67310;Laerm;65444;51.438;5.982;2023-03-19T00:34:41;32.73;28.41;46.76;;
67310;Laerm;65444;51.438;5.982;2023-03-19T00:36:16;29.25;27.21;38.39;;
67310;Laerm;65444;51.438;5.982;2023-03-19T00:36:27;28.65;27.25;34.25;;
67310;Laerm;65444;51.438;5.982;2023-03-19T00:36:39;29.98;27.28;41.70;;
67310;Laerm;65444;51.438;5.982;2023-03-19T00:36:50;28.88;27.21;33.84;;
67310;Laerm;65444;51.438;5.982;2023-03-19T00:37:01;29.77;27.04;37.88;;
67310;Laerm;65444;51.438;5.982;2023-03-19T00:37:12;29.92;27.35;39.02;;
67310;Laerm;65444;51.438;5.982;2023-03-19T00:37:25;28.85;27.08;33.77;;
67310;Laerm;65444;51.438;5.982;2023-03-19T00:37:36;28.80;27.11;33.75;;
67310;Laerm;65444;51.438;5.982;2023-03-19T00:37:47;28.42;26.93;33.60;;
67310;Laerm;65444;51.438;5.982;2023-03-19T00:37:57;28.77;27.35;34.43;;
67310;Laerm;65444;51.438;5.982;2023-03-19T00:38:49;29.25;27.51;35.05;;
67310;Laerm;65444;51.438;5.982;2023-03-19T00:39:01;29.57;27.83;33.60;;
67310;Laerm;65444;51.438;5.982;2023-03-19T00:39:12;30.08;28.00;34.11;;
67310;Laerm;65444;51.438;5.982;2023-03-19T00:39:23;30.09;28.20;33.62;;
67310;Laerm;65444;51.438;5.982;2023-03-19T00:39:33;29.60;27.85;34.09;;
67310;Laerm;65444;51.438;5.982;2023-03-19T00:39:44;30.03;28.21;35.05;;
67310;Laerm;65444;51.438;5.982;2023-03-19T00:39:54;30.46;28.40;34.26;;
67310;Laerm;65444;51.438;5.982;2023-03-19T00:40:05;30.23;28.51;34.54;;
67310;Laerm;65444;51.438;5.982;2023-03-19T00:40:17;30.78;28.76;36.42;;
67310;Laerm;65444;51.438;5.982;2023-03-19T00:40:27;33.09;29.99;36.40;;
67310;Laerm;65444;51.438;5.982;2023-03-19T00:40:38;30.95;28.81;34.59;;
67310;Laerm;65444;51.438;5.982;2023-03-19T00:40:49;29.90;28.37;34.57;;
67310;Laerm;65444;51.438;5.982;2023-03-19T00:41:41;30.39;28.11;43.68;;
67310;Laerm;65444;51.438;5.982;2023-03-19T00:41:59;31.08;28.98;36.71;;
67310;Laerm;65444;51.438;5.982;2023-03-19T00:42:10;29.78;28.53;33.20;;
67310;Laerm;65444;51.438;5.982;2023-03-19T00:42:21;30.23;28.24;34.21;;
67310;Laerm;65444;51.438;5.982;2023-03-19T00:42:31;30.40;28.88;33.86;;
67310;Laerm;65444;51.438;5.982;2023-03-19T00:42:42;29.88;28.37;34.28;;
67310;Laerm;65444;51.438;5.982;2023-03-19T00:42:54;31.71;29.85;34.65;;
67310;Laerm;65444;51.438;5.982;2023-03-19T00:43:14;31.12;29.40;34.82;;
67310;Laerm;65444;51.438;5.982;2023-03-19T00:43:25;36.05;31.19;42.47;;
67310;Laerm;65444;51.438;5.982;2023-03-19T00:43:36;36.75;30.31;42.60;;
67310;Laerm;65444;51.438;5.982;2023-03-19T00:43:51;33.28;30.14;36.55;;
67310;Laerm;65444;51.438;5.982;2023-03-19T00:44:02;38.52;30.96;42.38;;
67310;Laerm;65444;51.438;5.982;2023-03-19T00:44:13;31.21;29.09;34.28;;
67310;Laerm;65444;51.438;5.982;2023-03-19T00:44:24;31.19;28.30;37.84;;
67310;Laerm;65444;51.438;5.982;2023-03-19T00:44:34;31.04;28.50;34.56;;
67310;Laerm;65444;51.438;5.982;2023-03-19T00:44:54;30.17;28.46;34.28;;
67310;Laerm;65444;51.438;5.982;2023-03-19T00:45:06;30.76;28.20;39.36;;
67310;Laerm;65444;51.438;5.982;2023-03-19T00:45:17;30.54;28.13;41.24;;
67310;Laerm;65444;51.438;5.982;2023-03-19T00:45:27;29.80;28.29;34.12;;
67310;Laerm;65444;51.438;5.982;2023-03-19T00:45:39;31.27;29.33;35.25;;
67310;Laerm;65444;51.438;5.982;2023-03-19T00:45:51;30.48;28.82;33.77;;
67310;Laerm;65444;51.438;5.982;2023-03-19T00:46:02;29.99;28.13;34.21;;
67310;Laerm;65444;51.438;5.982;2023-03-19T00:46:13;29.57;28.01;33.79;;
67310;Laerm;65444;51.438;5.982;2023-03-19T00:46:23;30.22;28.17;34.59;;
67310;Laerm;65444;51.438;5.982;2023-03-19T00:46:34;29.76;27.98;34.60;;
67310;Laerm;65444;51.438;5.982;2023-03-19T00:46:46;28.94;27.82;33.42;;
67310;Laerm;65444;51.438;5.982;2023-03-19T00:47:32;29.53;27.69;34.27;;
67310;Laerm;65444;51.438;5.982;2023-03-19T00:47:42;29.09;27.95;33.78;;
67310;Laerm;65444;51.438;5.982;2023-03-19T00:47:53;29.62;28.01;33.29;;
67310;Laerm;65444;51.438;5.982;2023-03-19T00:48:19;29.50;27.78;32.46;;
67310;Laerm;65444;51.438;5.982;2023-03-19T00:48:30;29.39;27.60;34.47;;
67310;Laerm;65444;51.438;5.982;2023-03-19T00:48:41;30.18;28.12;36.45;;
67310;Laerm;65444;51.438;5.982;2023-03-19T00:48:52;30.16;28.33;34.10;;
67310;Laerm;65444;51.438;5.982;2023-03-19T00:49:11;31.91;28.55;36.47;;
67310;Laerm;65444;51.438;5.982;2023-03-19T00:49:21;31.84;28.78;35.40;;
67310;Laerm;65444;51.438;5.982;2023-03-19T00:49:31;30.69;28.19;36.31;;
67310;Laerm;65444;51.438;5.982;2023-03-19T00:49:43;30.07;28.33;33.59;;
67310;Laerm;65444;51.438;5.982;2023-03-19T00:49:58;29.99;27.93;38.96;;
67310;Laerm;65444;51.438;5.982;2023-03-19T00:50:09;29.07;27.27;33.44;;
67310;Laerm;65444;51.438;5.982;2023-03-19T00:50:20;30.76;27.91;37.92;;
67310;Laerm;65444;51.438;5.982;2023-03-19T00:50:31;36.61;31.20;42.58;;
67310;Laerm;65444;51.438;5.982;2023-03-19T00:51:28;31.90;27.34;40.07;;
67310;Laerm;65444;51.438;5.982;2023-03-19T00:51:39;28.87;27.44;38.09;;
67310;Laerm;65444;51.438;5.982;2023-03-19T00:55:17;30.96;27.73;44.31;;
67310;Laerm;65444;51.438;5.982;2023-03-19T00:56:00;28.78;27.20;32.93;;
67310;Laerm;65444;51.438;5.982;2023-03-19T00:56:11;28.53;27.17;33.46;;
67310;Laerm;65444;51.438;5.982;2023-03-19T00:56:22;28.53;27.17;33.89;;
67310;Laerm;65444;51.438;5.982;2023-03-19T00:56:32;28.71;27.57;33.92;;
67310;Laerm;65444;51.438;5.982;2023-03-19T00:56:43;28.46;27.12;33.75;;
67310;Laerm;65444;51.438;5.982;2023-03-19T00:56:54;28.37;27.32;33.00;;
67310;Laerm;65444;51.438;5.982;2023-03-19T00:57:04;28.54;27.32;33.13;;
67310;Laerm;65444;51.438;5.982;2023-03-19T00:57:15;30.08;27.83;33.86;;
67310;Laerm;65444;51.438;5.982;2023-03-19T00:57:26;33.33;29.21;37.36;;
67310;Laerm;65444;51.438;5.982;2023-03-19T00:57:36;36.28;29.50;43.05;;
67310;Laerm;65444;51.438;5.982;2023-03-19T00:57:48;29.66;27.99;34.33;;
67310;Laerm;65444;51.438;5.982;2023-03-19T00:58:34;29.59;27.66;36.93;;
67310;Laerm;65444;51.438;5.982;2023-03-19T00:58:45;29.18;27.25;33.54;;
67310;Laerm;65444;51.438;5.982;2023-03-19T00:58:57;28.81;27.25;30.33;;
67310;Laerm;65444;51.438;5.982;2023-03-19T00:59:23;29.07;27.82;32.69;;
67310;Laerm;65444;51.438;5.982;2023-03-19T00:59:38;28.73;27.17;33.64;;
67310;Laerm;65444;51.438;5.982;2023-03-19T00:59:48;28.77;27.26;33.03;;
67310;Laerm;65444;51.438;5.982;2023-03-19T00:59:59;28.97;27.65;33.66;;
67310;Laerm;65444;51.438;5.982;2023-03-19T01:00:10;29.69;28.14;34.01;;
67310;Laerm;65444;51.438;5.982;2023-03-19T01:00:20;29.46;27.55;33.99;;
67310;Laerm;65444;51.438;5.982;2023-03-19T01:00:32;28.79;27.16;32.75;;
67310;Laerm;65444;51.438;5.982;2023-03-19T01:01:30;28.56;26.90;33.70;;
67310;Laerm;65444;51.438;5.982;2023-03-19T01:01:41;28.98;27.55;33.51;;
67310;Laerm;65444;51.438;5.982;2023-03-19T01:01:52;29.20;27.49;33.96;;
67310;Laerm;65444;51.438;5.982;2023-03-19T01:02:05;28.98;27.23;32.02;;
67310;Laerm;65444;51.438;5.982;2023-03-19T01:02:23;28.54;27.18;37.31;;
67310;Laerm;65444;51.438;5.982;2023-03-19T01:02:33;34.47;27.60;42.64;;
67310;Laerm;65444;51.438;5.982;2023-03-19T01:02:44;37.65;28.45;45.37;;
67310;Laerm;65444;51.438;5.982;2023-03-19T01:02:55;28.35;27.21;34.96;;
67310;Laerm;65444;51.438;5.982;2023-03-19T01:03:05;28.47;27.29;33.05;;
67310;Laerm;65444;51.438;5.982;2023-03-19T01:04:27;28.38;27.05;35.80;;
67310;Laerm;65444;51.438;5.982;2023-03-19T01:04:38;28.37;27.05;33.02;;
67310;Laerm;65444;51.438;5.982;2023-03-19T01:04:49;29.04;27.12;36.02;;
67310;Laerm;65444;51.438;5.982;2023-03-19T01:05:00;29.23;27.30;37.62;;
67310;Laerm;65444;51.438;5.982;2023-03-19T01:05:11;28.31;27.22;32.44;;
67310;Laerm;65444;51.438;5.982;2023-03-19T01:05:22;28.52;27.17;32.88;;
67310;Laerm;65444;51.438;5.982;2023-03-19T01:05:33;29.52;27.06;42.62;;
67310;Laerm;65444;51.438;5.982;2023-03-19T01:05:46;28.23;26.88;34.08;;
67310;Laerm;65444;51.438;5.982;2023-03-19T01:05:57;28.23;27.21;32.65;;
67310;Laerm;65444;51.438;5.982;2023-03-19T01:06:07;28.35;27.09;30.43;;
67310;Laerm;65444;51.438;5.982;2023-03-19T01:06:18;28.57;27.33;33.29;;
67310;Laerm;65444;51.438;5.982;2023-03-19T01:06:46;29.95;27.65;42.26;;
67310;Laerm;65444;51.438;5.982;2023-03-19T01:06:56;29.17;27.34;33.47;;
67310;Laerm;65444;51.438;5.982;2023-03-19T01:07:23;28.87;27.59;33.03;;
67310;Laerm;65444;51.438;5.982;2023-03-19T01:07:33;32.00;28.13;37.47;;
67310;Laerm;65444;51.438;5.982;2023-03-19T01:07:44;30.04;28.00;32.90;;
67310;Laerm;65444;51.438;5.982;2023-03-19T01:07:56;29.58;27.78;35.80;;
67310;Laerm;65444;51.438;5.982;2023-03-19T01:08:06;29.10;27.70;33.28;;
67310;Laerm;65444;51.438;5.982;2023-03-19T01:08:17;29.41;28.21;33.88;;
67310;Laerm;65444;51.438;5.982;2023-03-19T01:08:28;29.19;27.87;30.86;;
67310;Laerm;65444;51.438;5.982;2023-03-19T01:08:39;29.54;27.83;37.24;;
67310;Laerm;65444;51.438;5.982;2023-03-19T01:08:50;28.91;27.48;33.56;;
67310;Laerm;65444;51.438;5.982;2023-03-19T01:09:01;29.30;27.86;33.84;;
67310;Laerm;65444;51.438;5.982;2023-03-19T01:09:14;29.71;28.18;31.54;;
67310;Laerm;65444;51.438;5.982;2023-03-19T01:09:25;30.01;27.75;34.70;;
67310;Laerm;65444;51.438;5.982;2023-03-19T01:09:35;29.73;27.85;34.79;;
67310;Laerm;65444;51.438;5.982;2023-03-19T01:09:46;31.01;28.31;34.99;;
67310;Laerm;65444;51.438;5.982;2023-03-19T01:09:57;29.04;27.56;30.79;;
67310;Laerm;65444;51.438;5.982;2023-03-19T01:10:07;29.18;27.97;33.26;;
67310;Laerm;65444;51.438;5.982;2023-03-19T01:10:19;29.93;28.49;33.98;;
67310;Laerm;65444;51.438;5.982;2023-03-19T01:10:37;29.67;28.06;31.09;;
67310;Laerm;65444;51.438;5.982;2023-03-19T01:10:47;31.39;27.92;35.89;;
67310;Laerm;65444;51.438;5.982;2023-03-19T01:11:08;30.39;28.30;42.59;;
67310;Laerm;65444;51.438;5.982;2023-03-19T01:11:18;29.98;27.92;34.47;;
67310;Laerm;65444;51.438;5.982;2023-03-19T01:11:29;29.62;27.78;32.12;;
67310;Laerm;65444;51.438;5.982;2023-03-19T01:11:40;29.49;27.97;33.71;;
67310;Laerm;65444;51.438;5.982;2023-03-19T01:11:50;30.65;28.49;34.75;;
67310;Laerm;65444;51.438;5.982;2023-03-19T01:12:01;33.37;29.91;38.16;;
67310;Laerm;65444;51.438;5.982;2023-03-19T01:12:13;31.26;28.41;35.01;;
67310;Laerm;65444;51.438;5.982;2023-03-19T01:12:24;30.75;28.92;36.90;;
67310;Laerm;65444;51.438;5.982;2023-03-19T01:12:36;30.61;28.83;33.35;;
67310;Laerm;65444;51.438;5.982;2023-03-19T01:12:46;30.46;28.74;34.29;;
67310;Laerm;65444;51.438;5.982;2023-03-19T01:12:57;30.35;28.73;33.60;;
67310;Laerm;65444;51.438;5.982;2023-03-19T01:13:07;29.95;28.63;32.19;;
67310;Laerm;65444;51.438;5.982;2023-03-19T01:13:18;30.60;28.43;34.22;;
67310;Laerm;65444;51.438;5.982;2023-03-19T01:13:29;31.29;28.65;36.94;;
67310;Laerm;65444;51.438;5.982;2023-03-19T01:13:40;30.42;28.07;34.71;;
67310;Laerm;65444;51.438;5.982;2023-03-19T01:13:51;29.48;27.47;32.92;;
67310;Laerm;65444;51.438;5.982;2023-03-19T01:14:02;30.79;28.96;33.74;;
67310;Laerm;65444;51.438;5.982;2023-03-19T01:14:14;31.98;28.67;34.81;;
67310;Laerm;65444;51.438;5.982;2023-03-19T01:14:25;30.99;29.21;35.00;;
67310;Laerm;65444;51.438;5.982;2023-03-19T01:14:37;30.19;28.29;32.17;;
67310;Laerm;65444;51.438;5.982;2023-03-19T01:14:47;29.75;28.07;33.35;;
67310;Laerm;65444;51.438;5.982;2023-03-19T01:14:57;38.42;27.71;60.69;;
67310;Laerm;65444;51.438;5.982;2023-03-19T01:15:08;30.44;27.74;42.20;;
67310;Laerm;65444;51.438;5.982;2023-03-19T01:15:19;29.26;27.69;33.99;;
67310;Laerm;65444;51.438;5.982;2023-03-19T01:15:29;29.23;27.40;33.95;;
67310;Laerm;65444;51.438;5.982;2023-03-19T01:15:41;29.81;28.52;31.63;;
67310;Laerm;65444;51.438;5.982;2023-03-19T01:15:58;30.39;28.72;33.75;;
67310;Laerm;65444;51.438;5.982;2023-03-19T01:16:09;30.62;29.01;34.26;;
67310;Laerm;65444;51.438;5.982;2023-03-19T01:16:20;31.03;29.15;33.63;;
67310;Laerm;65444;51.438;5.982;2023-03-19T01:16:31;32.28;30.41;39.31;;
67310;Laerm;65444;51.438;5.982;2023-03-19T01:16:44;33.08;31.45;35.97;;
67310;Laerm;65444;51.438;5.982;2023-03-19T01:16:54;32.29;30.03;34.89;;
67310;Laerm;65444;51.438;5.982;2023-03-19T01:17:05;33.28;31.21;36.33;;
67310;Laerm;65444;51.438;5.982;2023-03-19T01:17:16;35.19;32.34;38.12;;
67310;Laerm;65444;51.438;5.982;2023-03-19T01:17:26;42.01;36.70;45.69;;
67310;Laerm;65444;51.438;5.982;2023-03-19T01:17:37;43.83;40.29;48.24;;
67310;Laerm;65444;51.438;5.982;2023-03-19T01:17:47;45.74;43.62;50.96;;
67310;Laerm;65444;51.438;5.982;2023-03-19T01:17:58;44.14;40.69;46.88;;
67310;Laerm;65444;51.438;5.982;2023-03-19T01:18:09;40.22;37.01;43.26;;
67310;Laerm;65444;51.438;5.982;2023-03-19T01:18:20;36.44;32.79;41.67;;
67310;Laerm;65444;51.438;5.982;2023-03-19T01:18:31;32.19;30.27;34.78;;
67310;Laerm;65444;51.438;5.982;2023-03-19T01:18:42;31.04;28.87;34.33;;
67310;Laerm;65444;51.438;5.982;2023-03-19T01:18:52;29.44;27.90;33.01;;
67310;Laerm;65444;51.438;5.982;2023-03-19T01:19:03;29.00;27.73;30.86;;
67310;Laerm;65444;51.438;5.982;2023-03-19T01:19:15;28.69;27.53;33.54;;
67310;Laerm;65444;51.438;5.982;2023-03-19T01:19:26;28.42;26.90;32.91;;
67310;Laerm;65444;51.438;5.982;2023-03-19T01:19:36;28.35;26.93;29.99;;
67310;Laerm;65444;51.438;5.982;2023-03-19T01:19:47;29.34;27.70;34.00;;
67310;Laerm;65444;51.438;5.982;2023-03-19T01:19:58;29.45;27.97;31.84;;
67310;Laerm;65444;51.438;5.982;2023-03-19T01:20:09;28.95;27.65;33.47;;
67310;Laerm;65444;51.438;5.982;2023-03-19T01:20:22;28.55;27.37;34.09;;
67310;Laerm;65444;51.438;5.982;2023-03-19T01:20:33;28.37;26.99;31.93;;
67310;Laerm;65444;51.438;5.982;2023-03-19T01:20:44;28.35;26.76;33.28;;
67310;Laerm;65444;51.438;5.982;2023-03-19T01:20:54;28.29;27.15;32.62;;
67310;Laerm;65444;51.438;5.982;2023-03-19T01:21:05;28.24;26.98;30.02;;
67310;Laerm;65444;51.438;5.982;2023-03-19T01:21:17;28.37;27.02;31.95;;
67310;Laerm;65444;51.438;5.982;2023-03-19T01:21:28;28.44;26.96;30.49;;
67310;Laerm;65444;51.438;5.982;2023-03-19T01:21:40;28.31;26.95;32.78;;
67310;Laerm;65444;51.438;5.982;2023-03-19T01:21:55;28.39;27.32;32.25;;
67310;Laerm;65444;51.438;5.982;2023-03-19T01:22:05;28.63;27.32;32.75;;
67310;Laerm;65444;51.438;5.982;2023-03-19T01:22:19;28.65;27.48;30.15;;
67310;Laerm;65444;51.438;5.982;2023-03-19T01:22:29;28.68;27.52;33.53;;
67310;Laerm;65444;51.438;5.982;2023-03-19T01:22:40;28.91;27.71;32.12;;
67310;Laerm;65444;51.438;5.982;2023-03-19T01:22:51;28.83;27.62;33.73;;
67310;Laerm;65444;51.438;5.982;2023-03-19T01:23:02;29.08;27.78;33.94;;
67310;Laerm;65444;51.438;5.982;2023-03-19T01:23:13;30.08;27.71;35.79;;
67310;Laerm;65444;51.438;5.982;2023-03-19T01:23:24;29.86;27.79;35.66;;
67310;Laerm;65444;51.438;5.982;2023-03-19T01:23:35;28.93;27.59;31.97;;
67310;Laerm;65444;51.438;5.982;2023-03-19T01:23:45;28.74;27.50;33.13;;
67310;Laerm;65444;51.438;5.982;2023-03-19T01:23:56;29.60;27.51;40.40;;
67310;Laerm;65444;51.438;5.982;2023-03-19T01:24:07;29.10;27.69;32.51;;
67310;Laerm;65444;51.438;5.982;2023-03-19T01:24:18;28.99;27.34;36.55;;
67310;Laerm;65444;51.438;5.982;2023-03-19T01:24:29;28.90;27.62;33.38;;
67310;Laerm;65444;51.438;5.982;2023-03-19T01:24:40;28.76;27.55;30.65;;
67310;Laerm;65444;51.438;5.982;2023-03-19T01:24:50;28.97;27.63;33.38;;
67310;Laerm;65444;51.438;5.982;2023-03-19T01:25:01;29.61;27.77;32.38;;
67310;Laerm;65444;51.438;5.982;2023-03-19T01:25:12;29.76;27.71;32.78;;
67310;Laerm;65444;51.438;5.982;2023-03-19T01:25:23;29.28;27.68;33.37;;
67310;Laerm;65444;51.438;5.982;2023-03-19T01:25:34;29.53;27.92;31.88;;
67310;Laerm;65444;51.438;5.982;2023-03-19T01:25:45;30.21;28.57;33.92;;
67310;Laerm;65444;51.438;5.982;2023-03-19T01:25:56;30.86;28.57;34.62;;
67310;Laerm;65444;51.438;5.982;2023-03-19T01:26:07;31.34;29.28;39.39;;
67310;Laerm;65444;51.438;5.982;2023-03-19T01:26:18;30.93;28.40;37.42;;
67310;Laerm;65444;51.438;5.982;2023-03-19T01:26:28;29.03;27.53;32.93;;
67310;Laerm;65444;51.438;5.982;2023-03-19T01:26:39;30.48;27.92;40.35;;
67310;Laerm;65444;51.438;5.982;2023-03-19T01:26:52;30.25;28.49;34.58;;
67310;Laerm;65444;51.438;5.982;2023-03-19T01:27:03;30.82;28.76;35.16;;
67310;Laerm;65444;51.438;5.982;2023-03-19T01:27:13;33.51;29.12;38.97;;
67310;Laerm;65444;51.438;5.982;2023-03-19T01:27:24;40.44;35.96;46.02;;
67310;Laerm;65444;51.438;5.982;2023-03-19T01:27:34;32.23;28.80;36.61;;
67310;Laerm;65444;51.438;5.982;2023-03-19T01:27:45;29.54;27.81;35.99;;
67310;Laerm;65444;51.438;5.982;2023-03-19T01:27:56;29.31;27.94;30.78;;
67310;Laerm;65444;51.438;5.982;2023-03-19T01:28:06;28.74;27.53;32.99;;
67310;Laerm;65444;51.438;5.982;2023-03-19T01:28:17;28.41;27.02;31.14;;
67310;Laerm;65444;51.438;5.982;2023-03-19T01:28:29;28.35;26.85;32.88;;
67310;Laerm;65444;51.438;5.982;2023-03-19T01:28:39;28.44;27.14;33.80;;
67310;Laerm;65444;51.438;5.982;2023-03-19T01:28:50;28.31;27.13;30.03;;
67310;Laerm;65444;51.438;5.982;2023-03-19T01:29:01;28.40;27.13;33.11;;
67310;Laerm;65444;51.438;5.982;2023-03-19T01:29:12;28.53;27.27;32.94;;
67310;Laerm;65444;51.438;5.982;2023-03-19T01:29:22;28.29;27.25;30.36;;
67310;Laerm;65444;51.438;5.982;2023-03-19T01:29:33;28.47;27.44;32.90;;
67310;Laerm;65444;51.438;5.982;2023-03-19T01:29:44;29.40;27.63;31.11;;
67310;Laerm;65444;51.438;5.982;2023-03-19T01:29:54;29.47;27.50;33.65;;
67310;Laerm;65444;51.438;5.982;2023-03-19T01:30:20;29.48;27.79;33.52;;
67310;Laerm;65444;51.438;5.982;2023-03-19T01:30:30;29.56;27.27;38.02;;
67310;Laerm;65444;51.438;5.982;2023-03-19T01:30:41;29.89;27.60;34.88;;
67310;Laerm;65444;51.438;5.982;2023-03-19T01:30:51;30.28;27.96;35.72;;
67310;Laerm;65444;51.438;5.982;2023-03-19T01:31:04;29.35;27.67;34.04;;
67310;Laerm;65444;51.438;5.982;2023-03-19T01:31:18;28.80;27.36;33.79;;
67310;Laerm;65444;51.438;5.982;2023-03-19T01:31:29;28.64;27.25;32.98;;
67310;Laerm;65444;51.438;5.982;2023-03-19T01:31:39;31.77;27.83;49.96;;
67310;Laerm;65444;51.438;5.982;2023-03-19T01:31:50;39.49;32.09;45.70;;
67310;Laerm;65444;51.438;5.982;2023-03-19T01:32:00;31.61;27.52;36.01;;
67310;Laerm;65444;51.438;5.982;2023-03-19T01:32:11;28.93;27.07;33.12;;
67310;Laerm;65444;51.438;5.982;2023-03-19T01:32:24;29.12;27.94;31.75;;
67310;Laerm;65444;51.438;5.982;2023-03-19T01:32:34;31.22;27.79;37.73;;
67310;Laerm;65444;51.438;5.982;2023-03-19T01:32:45;35.04;28.85;41.16;;
67310;Laerm;65444;51.438;5.982;2023-03-19T01:32:55;30.36;28.70;32.90;;
67310;Laerm;65444;51.438;5.982;2023-03-19T01:33:06;30.08;28.53;33.78;;
67310;Laerm;65444;51.438;5.982;2023-03-19T01:33:20;29.62;28.00;31.06;;
67310;Laerm;65444;51.438;5.982;2023-03-19T01:33:30;30.52;28.62;34.62;;
67310;Laerm;65444;51.438;5.982;2023-03-19T01:33:41;31.33;28.85;34.61;;